DRI Storm Peak Lab. Weather observations

Data are for 5 minute period ending at time listed.
 Day   Time    Ave.   Ave.  Ave.  Vector  Max.   Total    Baro.    Solar      Aerosol      Ave.  Ultrafine   Snow  
  of    of     Air    Rel.  Wind   Wind   Wind  Precip.   Pres.  Radiation   Aerosol      Ozone   Aerosol    Depth 
Year   Day     Temp.  Hum.  Speed  Dir.   Gust                               Ave.   Max.            Ave.           
2015   (MST)    F      %     mph   deg.    mph    in.      mb.     w/m2         #/cm3      ppbv    #/cm3      in.  
-------------------------------------------------------------------------------------------------------------------
 186    9:55   49.9    90    9.1   302    12.8   999.00    696.1      0.0    -1417       0   999.0        0     0.0
 186   10:00   49.5    92    8.7   293    13.7   999.00    696.1      0.0    -1417       0   999.0        0     0.0
 186   10:05   49.5    93    8.4   286    11.5   999.00    696.1      0.0    -1416       0   999.0        0     0.0
 186   10:10   49.1    94    9.2   294    11.8   999.00    696.1      0.0    -1416       0   999.0        0     0.0
 186   10:15   48.7    94    8.7   298    12.0   999.00    696.1      0.0    -1416       0   999.0        0     0.0
 186   10:20   49.1    94    8.8   300    12.4   999.00    696.1      0.0    -1416       0   999.0        0     0.0
 186   10:25   48.6    96    7.9   303    10.2   999.00    696.1      0.0    -1416       0   999.0        0     0.0
 186   10:30   48.7    96    7.4   300    11.3   999.00    696.0      0.0    -1416       0   999.0        0     0.0
 186   10:35   48.5    96   10.3   294    13.9   999.00    696.0      0.0    -1416       0   999.0        0     0.0
 186   10:40   48.2    96    8.9   304    11.3   999.00    696.0      0.0    -1416       0   999.0        0     0.0
 186   10:45   48.0    97    9.7   305    11.5   999.00    696.0      0.0    -1416       0   999.0        0     0.0
 186   10:50   48.0    98    9.1   305    12.6   999.00    696.1      0.0    -1416       0   999.0        0     0.0
 186   10:55   47.9    98    8.0   306     9.8   999.00    696.0      0.0    -1416       0   999.0        0     0.0
 186   11:00   48.2    98    8.1   296    10.6   999.00    696.0      0.0    -1416       0   999.0        0     0.0
 186   11:05   48.4    98    7.6   294    10.2   999.00    696.0      0.0    -1416       0   999.0        0     0.0
 186   11:10  999.0   999  999.0   999   999.0   999.00    999.0    999.0    999000   999000   999.0    999000   999.0
 186   11:15  999.0   999  999.0   999   999.0   999.00    999.0    999.0    999000   999000   999.0    999000   999.0
 186   11:20  999.0   999  999.0   999   999.0   999.00    999.0    999.0    999000   999000   999.0    999000   999.0
 186   11:25  999.0   999  999.0   999   999.0   999.00    999.0    999.0    999000   999000   999.0    999000   999.0
 186   11:30  999.0   999  999.0   999   999.0   999.00    999.0    999.0    999000   999000   999.0    999000   999.0
 186   11:35  999.0   999  999.0   999   999.0   999.00    999.0    999.0    999000   999000   999.0    999000   999.0
 186   11:40  999.0   999  999.0   999   999.0   999.00    999.0    999.0    999000   999000   999.0    999000   999.0
 186   11:45  999.0   999  999.0   999   999.0   999.00    999.0    999.0    999000   999000   999.0    999000   999.0
 186   11:50  999.0   999  999.0   999   999.0   999.00    999.0    999.0    999000   999000   999.0    999000   999.0
 186   11:55  999.0   999  999.0   999   999.0   999.00    999.0    999.0    999000   999000   999.0    999000   999.0
 186   12:00  999.0   999  999.0   999   999.0   999.00    999.0    999.0    999000   999000   999.0    999000   999.0
 186   12:05   49.9    91    6.5   289     8.7   999.00    695.8      0.0    -1415       0   999.0        0     0.0
 186   12:10   49.6    90    6.6   300     9.2   999.00    695.8      0.0    -1414       0   999.0        0     0.0
 186   12:15   49.7    92    6.0   290     9.2   999.00    695.8      0.0    -1414       0   999.0        0     0.0
 186   12:20   49.6    93    5.9   303     7.9   999.00    695.7      0.0    -1414       0   999.0        0     0.0
 186   12:25   49.2    94    6.2   304     8.3   999.00    695.7      0.0    -1414       0   999.0        0     0.0
 186   12:30   48.3    97    7.4   303     9.8   999.00    695.6      0.0    -1413       0   999.0        0     0.0
 186   12:35   48.6    99    6.8   298     9.2   999.00    695.5      0.0    -1413       0   999.0        0     0.0
 186   12:40   48.8    99    6.7   309     8.7   999.00    695.5      0.0    -1413       0   999.0        0     0.0
 186   12:45   48.6   100    7.3   301    10.2   999.00    695.5      0.0    -1413       0   999.0        0     0.0
 186   12:50   48.4   100    8.1   301    10.9   999.00    695.5      0.0    -1413       0   999.0        0     0.0
 186   12:55   48.2   100    9.3   301    13.7   999.00    695.5      0.0    -1413       0   999.0        0     0.0
 186   13:00   48.5   100    7.3   299    11.1   999.00    695.6      0.0    -1413       0   999.0        0     0.0
 186   13:05   48.6   100    9.2   274    13.5   999.00    695.6      0.0    -1413       0   999.0        0     0.0
 186   13:10   48.3   100    6.3   286    11.5   999.00    695.5      0.0    -1413       0   999.0        0     0.0
 186   13:15   48.4   100    8.9   276    14.4   999.00    695.4      0.0    -1413       0   999.0        0     0.0
 186   13:20   48.3   100    7.0   307    10.2   999.00    695.4      0.0    -1413       0   999.0        0     0.0
 186   13:25   48.2   100    5.2   294     8.9   999.00    695.4      0.0    -1413       0   999.0        0     0.0
 186   13:30   48.0   100    5.7   309     9.6   999.00    695.4      0.0    -1413       0   999.0        0     0.0
 186   13:35   47.9   100    4.3   292     7.8   999.00    695.4      0.0    -1413       0   999.0        0     0.0
 186   13:40   48.1   100    4.7   286     9.1   999.00    695.4      0.0    -1413       0   999.0        0     0.0
 186   13:45   48.1   100    6.3   298     9.6   999.00    695.3      0.0    -1413       0   999.0        0     0.0
 186   13:50   48.7   100    4.9   289     7.4   999.00    695.3      0.0    -1413       0   999.0        0     0.0
 186   13:55   49.3   100    4.6   300     6.1   999.00    695.3      0.0    -1412       0   999.0        0     0.0
 186   14:00   49.2   100    4.9   290     7.0   999.00    695.3      0.0    -1411       0   999.0        0     0.0
 186   14:05   49.3   100    4.9   304     6.5   999.00    695.2      0.0    -1411       0   999.0        0     0.0
 186   14:10   49.6   100    5.6   300     8.3   999.00    695.2      0.0    -1410       0   999.0        0     0.0
 186   14:15   48.6   100    5.7   291     7.8   999.00    695.3      0.0    -1410       0   999.0        0     0.0
 186   14:20   49.1   100    4.0   276     5.7   999.00    695.3      0.0    -1410       0   999.0        0     0.0
 186   14:25   48.5   100    4.3   308     5.3   999.00    695.4      0.0    -1410       0   999.0        0     0.0
 186   14:30   47.8   100    2.5   312     5.0   999.00    695.4      0.0    -1409       0   999.0        0     0.0
 186   14:35   48.1   100    4.4   272     6.5   999.00    695.4      0.0    -1409       0   999.0        0     0.0
 186   14:40   48.0   100    5.2   315     6.6   999.00    695.3      0.0    -1409       0   999.0        0     0.0
 186   14:45   48.8   100    5.1   320     7.0   999.00    695.3      0.0    -1409       0   999.0        0     0.0
 186   14:50   49.2   100    4.5   307     6.1   999.00    695.2      0.0    -1409       0   999.0        0     0.0
 186   14:55   49.1   100    5.1   295     6.6   999.00    695.2      0.0    -1408       0   999.0        0     0.0
 186   15:00   48.8   100    4.8   308     6.8   999.00    695.3      0.0    -1408       0   999.0        0     0.0
 186   15:05   48.2   100    4.9   300     6.5   999.00    695.2      0.0    -1408       0   999.0        0     0.0
 186   15:10   48.2   100    4.5   301     5.3   999.00    695.2      0.0    -1408       0   999.0        0     0.0
 186   15:15   48.4   100    4.1   285     5.0   999.00    695.2      0.0    -1408       0   999.0        0     0.0
 186   15:20   48.2   100    4.7   287     6.5   999.00    695.2      0.0    -1408       0   999.0        0     0.0
 186   15:25   48.0   100    4.0   263     8.1   999.00    695.2      0.0    -1408       0   999.0        0     0.0
 186   15:30   48.4   100    5.5   278    10.0   999.00    695.2      0.0    -1408       0   999.0        0     0.0
 186   15:35   47.9   100    5.1   274     7.4   999.00    695.2      0.0    -1408       0   999.0        0     0.0
 186   15:40   47.8   100    5.2   286     7.8   999.00    695.3      0.0    -1408       0   999.0        0     0.0
 186   15:45   47.2   100    5.3   303     8.7   999.00    695.3      0.0    -1408       0   999.0        0     0.0
 186   15:50   47.5   100    6.2   303     9.8   999.00    695.2      0.0    -1408       0   999.0        0     0.0
 186   15:55   47.2   100    6.2   296     8.7   999.00    695.2      0.0    -1408       0   999.0        0     0.0
 186   16:00   47.0   100    5.1   300     6.1   999.00    695.2      0.0    -1408       0   999.0        0     0.0
 186   16:05   47.2   100    5.6   309     8.3   999.00    695.2      0.0    -1409       0   999.0        0     0.0
 186   16:10   47.2   100    6.2   309     8.5   999.00    695.1      0.0    -1409       0   999.0        0     0.0
 186   16:15   47.1   100    5.7   306     7.9   999.00    695.1      0.0    -1409       0   999.0        0     0.0
 186   16:20   47.2   100    5.1   307     7.0   999.00    695.1      0.0    -1409       0   999.0        0     0.0
 186   16:25   47.0   100    5.1   304     8.7   999.00    695.2      0.0    -1409       0   999.0        0     0.0
 186   16:30   47.1   100    5.0   294     6.3   999.00    695.2      0.0    -1409       0   999.0        0     0.0
 186   16:35   47.1   100    4.9   293     6.3   999.00    695.1      0.0    -1409       0   999.0        0     0.0
 186   16:40   47.2   100    5.0   303     7.4   999.00    695.1      0.0    -1409       0   999.0        0     0.0
 186   16:45   47.6   100    5.3   311     7.2   999.00    695.0      0.0    -1409       0   999.0        0     0.0
 186   16:50   47.7   100    5.3   315     7.2   999.00    695.0      0.0    -1409       0   999.0        0     0.0
 186   16:55   47.4   100    5.6   298     7.2   999.00    694.9      0.0    -1409       0   999.0        0     0.0
 186   17:00   47.6   100    6.3   288     9.2   999.00    694.9      0.0    -1409       0   999.0        0     0.0
 186   17:05   48.7   100    6.7   282    10.2   999.00    694.9      0.0    -1409       0   999.0        0     0.0
 186   17:10   48.7   100    7.6   278    11.3   999.00    694.9      0.0    -1409       0   999.0        0     0.0
 186   17:15   47.7   100    8.4   275    13.2   999.00    695.0      0.0    -1409       0   999.0        0     0.0
 186   17:20   47.4   100    6.2   276     9.6   999.00    695.0      0.0    -1409       0   999.0        0     0.0
 186   17:25   47.5   100    5.1   283     6.6   999.00    694.9      0.0    -1409       0   999.0        0     0.0
 186   17:30   47.7   100    5.4   288     8.3   999.00    694.9      0.0    -1409       0   999.0        0     0.0
 186   17:35   47.6   100    6.2   279     8.5   999.00    694.9      0.0    -1409       0   999.0        0     0.0
 186   17:40   47.5   100    7.1   278    10.9   999.00    694.9      0.0    -1409       0   999.0        0     0.0
 186   17:45   47.2   100    6.6   277     9.4   999.00    695.0      0.0    -1410       0   999.0        0     0.0
 186   17:50   47.2   100    5.8   281     8.5   999.00    695.1      0.0    -1410       0   999.0        0     0.0
 186   17:55   46.9   100    6.6   285     9.4   999.00    695.1      0.0    -1410       0   999.0        0     0.0
 186   18:00   46.8   100    6.9   286     9.8   999.00    695.1      0.0    -1410       0   999.0        0     0.0
 186   18:05   46.8   100    7.3   278    11.3   999.00    695.2      0.0    -1410       0   999.0        0     0.0
 186   18:10   46.6   100    7.7   276    10.6   999.00    695.2      0.0    -1411       0   999.0        0     0.0
 186   18:15   46.6   100    8.0   276    11.7   999.00    695.2      0.0    -1411       0   999.0        0     0.0
 186   18:20   46.6   100    8.5   274    11.5   999.00    695.2      0.0    -1412       0   999.0        0     0.0
 186   18:25   46.7   100    8.2   273    12.0   999.00    695.4      0.0    -1413       0   999.0        0     0.0
 186   18:30   46.9   100    6.7   267    11.7   999.00    695.3      0.0    -1413       0   999.0        0     0.0
 186   18:35   47.0   100    5.4   282    11.3   999.00    695.4      0.0    -1414       0   999.0        0     0.0
 186   18:40   47.1   100   11.7   295    19.3   999.00    695.5      0.0    -1414       0   999.0        0     0.0
 186   18:45   47.3   100    9.5   313    14.6   999.00    695.7      0.0    -1415       0   999.0        0     0.0
 186   18:50   46.5   100   16.8   298    26.9   999.00    695.5      0.0    -1415       0   999.0        0     0.0
 186   18:55   46.6   100   10.7   319    13.9   999.00    695.6      0.0    -1415       0   999.0        0     0.0
 186   19:00   46.8   100   10.6   327    14.3   999.00    695.7      0.0    -1416       0   999.0        0     0.0
 186   19:05   46.7   100    9.1   328    14.4   999.00    695.6      0.0    -1416       0   999.0        0     0.0
 186   19:10   46.5   100    9.7   342    13.5   999.00    695.4      0.0    -1415       0   999.0        0     0.0
 186   19:15   46.0   100    7.8   349    10.6   999.00    695.3      0.0    -1415       0   999.0        0     0.0
 186   19:20   45.1   100    6.7   347    12.8   999.00    695.3      0.0    -1415       0   999.0        0     0.0
 186   19:25   44.8   100    6.7   343     9.1   999.00    695.3      0.0    -1415       0   999.0        0     0.0
 186   19:30   44.6   100    8.3   341    14.3   999.00    695.3      0.0    -1415       0   999.0        0     0.0
 186   19:35   44.4   100    8.4   341    11.3   999.00    695.3      0.0    -1415       0   999.0        0     0.0
 186   19:40   44.2   100    9.2   340    13.2   999.00    695.3      0.0    -1415       0   999.0        0     0.0
 186   19:45   44.0   100    8.0   338    10.6   999.00    695.3      0.0    -1415       0   999.0        0     0.0
 186   19:50   44.0   100    8.2   339    11.1   999.00    695.3      0.0    -1415       0   999.0        0     0.0
 186   19:55   44.0   100    7.8   338    10.9   999.00    695.2      0.0    -1414       0   999.0        0     0.0
 186   20:00   44.0   100    8.2   333    12.0   999.00    695.1      0.0    -1414       0   999.0        0     0.0
 186   20:05   44.0   100    7.3   332     9.8   999.00    695.2      0.0    -1414       0   999.0        0     0.0
 186   20:10   44.1   100    7.0   325     9.4   999.00    695.3      0.0    -1415       0   999.0        0     0.0
 186   20:15   44.2   100    6.6   319     8.9   999.00    695.3      0.0    -1415       0   999.0        0     0.0
 186   20:20   44.1   100    6.1   316     7.6   999.00    695.4      0.0    -1415       0   999.0        0     0.0
 186   20:25   44.3   100    5.9   318     7.4   999.00    695.4      0.0    -1415       0   999.0        0     0.0
 186   20:30   44.5   100    7.2   318     8.7   999.00    695.5      0.0    -1415       0   999.0        0     0.0
 186   20:35   44.7   100    5.7   324     6.8   999.00    695.5      0.0    -1415       0   999.0        0     0.0
 186   20:40   44.6   100    5.9   314     7.9   999.00    695.6      0.0    -1416       0   999.0        0     0.0
 186   20:45   44.5   100    5.4   310     7.0   999.00    695.7      0.0    -1416       0   999.0        0     0.0
 186   20:50   44.7   100    7.0   310     8.9   999.00    695.8      0.0    -1416       0   999.0        0     0.0
 186   20:55   44.8   100    5.8   312     7.8   999.00    695.8      0.0    -1417       0   999.0        0     0.0
 186   21:00   44.9   100    6.1   306     8.5   999.00    695.8      0.0    -1417       0   999.0        0     0.0
 186   21:05   44.7   100    5.1   294     9.1   999.00    695.8      0.0    -1417       0   999.0        0     0.0
 186   21:10   44.9   100    5.5   316     7.8   999.00    695.9      0.0    -1417       0   999.0        0     0.0
 186   21:15   44.6   100    7.2   305     9.4   999.00    695.9      0.0    -1418       0   999.0        0     0.0
 186   21:20   44.6   100    6.6   309     9.4   999.00    695.9      0.0    -1418       0   999.0        0     0.0
 186   21:25   44.6   100    5.9   301     8.7   999.00    695.9      0.0    -1418       0   999.0        0     0.0
 186   21:30   44.5   100    5.0   279     6.5   999.00    696.0      0.0    -1419       0   999.0        0     0.0
 186   21:35   44.4   100    5.9   267     8.1   999.00    696.0      0.0    -1419       0   999.0        0     0.0
 186   21:40   44.4   100    6.6   268     8.3   999.00    695.9      0.0    -1419       0   999.0        0     0.0
 186   21:45   44.4   100    5.0   266     6.5   999.00    695.9      0.0    -1419       0   999.0        0     0.0
 186   21:50   44.4   100    5.5   262     7.6   999.00    695.8      0.0    -1419       0   999.0        0     0.0
 186   21:55   44.2   100    8.1   253     9.8   999.00    695.9      0.0    -1419       0   999.0        0     0.0
 186   22:00   44.2   100    5.8   261     8.9   999.00    695.9      0.0    -1420       0   999.0        0     0.0
 186   22:05   44.3   100    5.5   257     7.0   999.00    695.9      0.0    -1420       0   999.0        0     0.0
 186   22:10   44.2   100    9.0   246    12.0   999.00    695.9      0.0    -1420       0   999.0        0     0.0
 186   22:15   44.0   100    9.1   243    10.6   999.00    695.8      0.0    -1420       0   999.0        0     0.0
 186   22:20   44.0   100    9.8   253    12.0   999.00    695.8      0.0    -1421       0   999.0        0     0.0
 186   22:25   43.9   100   11.5   246    13.0   999.00    695.8      0.0    -1422       0   999.0        0     0.0
 186   22:30   44.0   100   11.4   237    14.3   999.00    695.9      0.0    -1422       0   999.0        0     0.0
 186   22:35   44.2   100   11.1   241    13.7   999.00    695.9      0.0    -1423       0   999.0        0     0.0
 186   22:40   44.1   100   11.3   240    13.7   999.00    695.9      0.0    -1423       0   999.0        0     0.0
 186   22:45   44.1   100   10.7   238    12.4   999.00    696.0      0.0    -1423       0   999.0        0     0.0
 186   22:50   44.3   100   11.7   242    15.0   999.00    696.1      0.0    -1424       0   999.0        0     0.0
 186   22:55   44.4   100   10.7   229    13.0   999.00    696.1      0.0    -1424       0   999.0        0     0.0
 186   23:00   44.4   100   10.3   225    13.5   999.00    696.2      0.0    -1424       0   999.0        0     0.0
 186   23:05   44.3   100    6.8   214    11.1   999.00    696.2      0.0    -1424       0   999.0        0     0.0
 186   23:10   44.2   100    5.7   214     7.4   999.00    696.2      0.0    -1425       0   999.0        0     0.0
 186   23:15   44.2   100    4.8   210     6.8   999.00    696.1      0.0    -1425       0   999.0        0     0.0
 186   23:20   44.5   100    4.2   208     5.5   999.00    696.1      0.0    -1425       0   999.0        0     0.0
 186   23:25   44.5   100    4.6   204     6.3   999.00    696.1      0.0    -1425       0   999.0        0     0.0
 186   23:30   44.4   100    4.8   195     5.7   999.00    696.2      0.0    -1425       0   999.0        0     0.0
 186   23:35   44.3   100    5.2   190     7.8   999.00    696.2      0.0    -1425       0   999.0        0     0.0
 186   23:40   44.2   100    5.2   186     7.0   999.00    696.1      0.0    -1424       0   999.0        0     0.0
 186   23:45   44.1   100    5.0   193     7.0   999.00    696.2      0.0    -1424       0   999.0        0     0.0
 186   23:50   44.1   100    5.1   189     6.3   999.00    696.2      0.0    -1424       0   999.0        0     0.0
 186   23:55   43.9   100    4.7   190     6.3   999.00    696.2      0.0    -1424       0   999.0        0     0.0
 187    0:00   43.8   100    4.5   196     6.5   999.00    696.2      0.0    -1424       0   999.0        0     0.0
 187    0:05   43.7   100    4.4   198     5.7   999.00    696.3      0.0    -1424       0   999.0        0     0.0
 187    0:10   43.6   100    4.8   200     6.5   999.00    696.3      0.0    -1424       0   999.0        0     0.0
 187    0:15   43.7   100    5.2   184     6.8   999.00    696.3      0.0    -1424       0   999.0        0     0.0
 187    0:20   43.9   100    4.9   187     6.1   999.00    696.3      0.0    -1424       0   999.0        0     0.0
 187    0:25   43.8   100    5.2   199     8.1   999.00    696.3      0.0    -1424       0   999.0        0     0.0
 187    0:30   43.8   100    5.3   193     6.8   999.00    696.2      0.0    -1424       0   999.0        0     0.0
 187    0:35   43.7   100    5.1   190     6.5   999.00    696.1      0.0    -1424       0   999.0        0     0.0
 187    0:40   43.8   100    4.1   206     5.7   999.00    696.1      0.0    -1424       0   999.0        0     0.0
 187    0:45   43.9   100    3.8   209     5.2   999.00    696.1      0.0    -1424       0   999.0        0     0.0
 187    0:50   44.0    99    4.2   206     6.6   999.00    696.2      0.0    -1424       0   999.0        0     0.0
 187    0:55   44.1    98    5.8   201     8.1   999.00    696.2      0.0    -1424       0   999.0        0     0.0
 187    1:00   44.1    98    4.7   202     6.1   999.00    696.1      0.0    -1424       0   999.0        0     0.0
 187    1:05   44.1    98    4.4   205     7.4   999.00    696.2      0.0    -1424       0   999.0        0     0.0
 187    1:10   44.1    98    3.8   207     4.8   999.00    696.2      0.0    -1424       0   999.0        0     0.0
 187    1:15   44.1    97    4.3   211     5.9   999.00    696.2      0.0    -1424       0   999.0        0     0.0
 187    1:20   44.2    98    4.7   213     7.6   999.00    696.2      0.0    -1425       0   999.0        0     0.0
 187    1:25   44.2    98    6.8   225     8.9   999.00    696.3      0.0    -1425       0   999.0        0     0.0
 187    1:30   44.0    97    6.3   224     8.3   999.00    696.3      0.0    -1425       0   999.0        0     0.0
 187    1:35   44.2    98    5.1   217     6.6   999.00    696.3      0.0    -1425       0   999.0        0     0.0
 187    1:40   44.3    98    6.0   219     7.8   999.00    696.3      0.0    -1425       0   999.0        0     0.0
 187    1:45   44.2    98    6.5   220     9.2   999.00    696.4      0.0    -1426       0   999.0        0     0.0
 187    1:50   44.1    98    7.2   224     8.9   999.00    696.4      0.0    -1426       0   999.0        0     0.0
 187    1:55   44.1    99    8.1   237     9.4   999.00    696.6      0.0    -1426       0   999.0        0     0.0
 187    2:00   44.1    99    7.9   242     8.9   999.00    696.6      0.0    -1426       0   999.0        0     0.0
 187    2:05   44.2   100    5.6   256     8.1   999.00    696.5      0.0    -1427       0   999.0        0     0.0
 187    2:10   44.1   100    5.2   272     7.8   999.00    696.5      0.0    -1427       0   999.0        0     0.0
 187    2:15   44.1   100    5.6   274     8.5   999.00    696.5      0.0    -1427       0   999.0        0     0.0
 187    2:20   44.1   100    4.9   274     7.4   999.00    696.6      0.0    -1427       0   999.0        0     0.0
 187    2:25   44.2   100    4.9   267     6.3   999.00    696.5      0.0    -1427       0   999.0        0     0.0
 187    2:30   44.2   100    5.4   254     7.0   999.00    696.6      0.0    -1427       0   999.0        0     0.0
 187    2:35   44.3   100    6.0   243     7.6   999.00    696.6      0.0    -1428       0   999.0        0     0.0
 187    2:40   44.3   100    5.5   242     6.5   999.00    696.6      0.0    -1428       0   999.0        0     0.0
 187    2:45   44.3   100    5.6   255     7.8   999.00    696.6      0.0    -1428       0   999.0        0     0.0
 187    2:50   44.3   100    5.0   263     6.6   999.00    696.5      0.0    -1428       0   999.0        0     0.0
 187    2:55   44.3   100    4.9   259     6.8   999.00    696.6      0.0    -1428       0   999.0        0     0.0
 187    3:00   44.3   100    6.2   267     8.5   999.00    696.5      0.0    -1428       0   999.0        0     0.0
 187    3:05   44.2   100    5.0   267     6.6   999.00    696.5      0.0    -1428       0   999.0        0     0.0
 187    3:10   44.0   100    4.2   266     5.2   999.00    696.5      0.0    -1428       0   999.0        0     0.0
 187    3:15   43.9   100    4.9   268     5.9   999.00    696.5      0.0    -1428       0   999.0        0     0.0
 187    3:20   43.9   100    5.2   268     6.3   999.00    696.6      0.0    -1428       0   999.0        0     0.0
 187    3:25   44.0   100    4.8   266     5.7   999.00    696.6      0.0    -1429       0   999.0        0     0.0
 187    3:30   44.0   100    4.0   267     5.2   999.00    696.6      0.0    -1429       0   999.0        0     0.0
 187    3:35   43.9   100    3.8   267     4.8   999.00    696.6      0.0    -1429       0   999.0        0     0.0
 187    3:40   43.8   100    3.8   267     4.8   999.00    696.5      0.0    -1429       0   999.0        0     0.0
 187    3:45   43.6   100    4.7   270     5.9   999.00    696.5      0.0    -1429       0   999.0        0     0.0
 187    3:50   43.7   100    5.0   272     6.3   999.00    696.5      0.0    -1429       0   999.0        0     0.0
 187    3:55   43.8   100    5.4   272     6.8   999.00    696.5      0.0    -1429       0   999.0        0     0.0
 187    4:00   43.8   100    5.2   275     7.0   999.00    696.5      0.0    -1429       0   999.0        0     0.0
 187    4:05   43.6   100    4.4   276     7.2   999.00    696.5      0.0    -1429       0   999.0        0     0.0
 187    4:10   43.5   100    5.3   277     7.9   999.00    696.6      0.0    -1429       0   999.0        0     0.0
 187    4:15   43.5   100    5.6   285     7.9   999.00    696.6      0.0    -1429       0   999.0        0     0.0
 187    4:20   43.5   100    6.9   293     8.5   999.00    696.5      0.0    -1429       0   999.0        0     0.0
 187    4:25   43.6   100    6.1   294     8.3   999.00    696.5      0.0    -1430       0   999.0        0     0.0
 187    4:30   43.5   100    4.9   285     6.5   999.00    696.6      0.0    -1431       0   999.0        0     0.0
 187    4:35   43.4   100    6.4   286     8.5   999.00    696.6      0.0    -1431       0   999.0        0     0.0
 187    4:40   43.6   100    5.5   289     8.3   999.00    696.7      0.0    -1432       0   999.0        0     0.0
 187    4:45   43.7   100    4.6   287     6.5   999.00    696.7      0.0    -1432       0   999.0        0     0.0
 187    4:50   43.7   100    7.1   302    10.4   999.00    696.7      0.0    -1433       0   999.0        0     0.0
 187    4:55   43.7   100    6.6   306     9.1   999.00    696.7      0.0    -1433       0   999.0        0     0.0
 187    5:00   43.8   100    5.7   302     7.0   999.00    696.7      0.0    -1433       0   999.0        0     0.0
 187    5:05   43.8   100    5.3   287     7.4   999.00    696.8      0.0    -1433       0   999.0        0     0.0
 187    5:10   43.9   100    4.6   278     5.5   999.00    696.8      0.0    -1434       0   999.0        0     0.0
 187    5:15   43.9   100    4.1   277     5.5   999.00    696.9      0.0    -1434       0   999.0        0     0.0
 187    5:20   43.9   100    4.8   276     6.1   999.00    696.9      0.0    -1434       0   999.0        0     0.0
 187    5:25   43.8   100    5.0   275     7.4   999.00    696.9      0.0    -1434       0   999.0        0     0.0
 187    5:30   43.8   100    4.6   268     6.3   999.00    696.9      0.0    -1434       0   999.0        0     0.0
 187    5:35   43.7   100    4.4   271     6.5   999.00    696.9      0.0    -1434       0   999.0        0     0.0
 187    5:40   43.7   100    4.4   288     5.9   999.00    697.0      0.0    -1434       0   999.0        0     0.0
 187    5:45   43.8   100    4.9   288     5.9   999.00    697.0      0.0    -1434       0   999.0        0     0.0
 187    5:50   44.0   100    5.8   290     7.6   999.00    697.0      0.0    -1434       0   999.0        0     0.0
 187    5:55   44.1   100    5.8   306     7.2   999.00    697.0      0.0    -1434       0   999.0        0     0.0
 187    6:00   44.2   100    5.0   311     6.3   999.00    697.0      0.0    -1435       0   999.0        0     0.0
 187    6:05   44.3   100    4.3   305     5.3   999.00    697.0      0.0    -1435       0   999.0        0     0.0
 187    6:10   44.5   100    4.9   301     6.1   999.00    697.0      0.0    -1434       0   999.0        0     0.0
 187    6:15   44.5   100    5.7   308     8.1   999.00    697.2      0.0    -1435       0   999.0        0     0.0
 187    6:20   44.5   100    4.5   304     5.9   999.00    697.2      0.0    -1435       0   999.0        0     0.0
 187    6:25   44.7   100    4.0   303     7.0   999.00    697.2      0.0    -1434       0   999.0        0     0.0
 187    6:30   44.7   100    3.9   301     5.3   999.00    697.2      0.0    -1435       0   999.0        0     0.0
 187    6:35   44.8   100    4.9   297     6.1   999.00    697.2      0.0    -1433       0   999.0        0     0.0
 187    6:40   44.7   100    5.0   296     5.9   999.00    697.2      0.0    -1434       0   999.0        0     0.0
 187    6:45   44.8   100    3.9   298     5.5   999.00    697.2      0.0    -1434       0   999.0        0     0.0
 187    6:50   45.0   100    3.0   298     4.4   999.00    697.2      0.0    -1434       0   999.0        0     0.0
 187    6:55   45.2   100    4.2   297     5.5   999.00    697.3      0.0    -1434       0   999.0        0     0.0
 187    7:00   45.3   100    4.5   295     5.5   999.00    697.3      0.0    -1434       0   999.0        0     0.0
 187    7:05   45.1   100    4.1   280     5.7   999.00    697.3      0.0    -1433       0   999.0        0     0.0
 187    7:10   45.1   100    4.8   288     5.7   999.00    697.4      0.0    -1434       0   999.0        0     0.0
 187    7:15   45.2   100    4.7   290     5.9   999.00    697.5      0.0    -1433       0   999.0        0     0.0
 187    7:20   45.4   100    4.3   281     5.7   999.00    697.5      0.0    -1433       0   999.0        0     0.0
 187    7:25   45.6   100    4.0   280     5.5   999.00    697.6      0.0    -1433       0   999.0        0     0.0
 187    7:30   45.5   100    4.8   256     7.8   999.00    697.5      0.0    -1434       0   999.0        0     0.0
 187    7:35   45.3   100    3.4   253     5.7   999.00    697.6      0.0    -1434       0   999.0        0     0.0
 187    7:40   45.4   100    3.9   272     5.7   999.00    697.7      0.0    -1433       0   999.0        0     0.0
 187    7:45   45.1   100    3.6   262     5.3   999.00    697.7      0.0    -1433       0   999.0        0     0.0
 187    7:50   45.4   100    3.9   261     5.7   999.00    697.7      0.0    -1433       0   999.0        0     0.0
 187    7:55   45.6   100    4.3   290     5.9   999.00    697.7      0.0    -1432       0   999.0        0     0.0
 187    8:00   45.8   100    4.6   297     5.7   999.00    697.7      0.0    -1432       0   999.0        0     0.0
 187    8:05   45.9   100    4.4   274     5.7   999.00    697.8      0.0    -1432       0   999.0        0     0.0
 187    8:10   45.5   100    5.0   270     7.0   999.00    697.8      0.0    -1432       0   999.0        0     0.0
 187    8:15   45.6   100    4.9   280     7.6   999.00    697.8      0.0    -1432       0   999.0        0     0.0
 187    8:20   45.5   100    4.2   282     5.7   999.00    697.9      0.0    -1432       0   999.0        0     0.0
 187    8:25   45.2   100    3.9   273     5.5   999.00    697.9      0.0    -1432       0   999.0        0     0.0
 187    8:30   45.4   100    4.7   303     6.1   999.00    697.9      0.0    -1432       0   999.0        0     0.0
 187    8:35   45.2   100    5.4   304     7.9   999.00    697.8      0.0    -1432       0   999.0        0     0.0
 187    8:40   46.2   100    5.2   305     6.5   999.00    697.8      0.0    -1432       0   999.0        0     0.0
 187    8:45   46.4   100    5.1   305     6.6   999.00    697.8      0.0    -1432       0   999.0        0     0.0
 187    8:50   46.6   100    4.3   302     7.4   999.00    697.8      0.0    -1432       0   999.0        0     0.0
 187    8:55   46.9   100    5.5   300     7.6   999.00    697.9      0.0    -1432       0   999.0        0     0.0
 187    9:00   46.6   100    4.4   290     6.3   999.00    698.0      0.0    -1432       0   999.0        0     0.0
 187    9:05   46.9   100    3.6   284     7.4   999.00    698.0      0.0    -1432       0   999.0        0     0.0
 187    9:10   46.5   100    4.5   262     7.2   999.00    697.9      0.0    -1431       0   999.0        0     0.0
 187    9:15   46.9   100    4.2   264     6.5   999.00    697.9      0.0    -1431       0   999.0        0     0.0
 187    9:20   47.2    99    4.3   261     5.7   999.00    698.0      0.0    -1431       0   999.0        0     0.0
 187    9:25   46.7    99    4.4   284     6.1   999.00    698.0      0.0    -1431       0   999.0        0     0.0
 187    9:30   46.2   100    2.4   274     4.4   999.00    698.0      0.0    -1431       0   999.0        0     0.0
 187    9:35   46.9   100    3.8   274     5.3   999.00    698.1      0.0    -1430       0   999.0        0     0.0
 187    9:40   46.5    99    4.7   299     6.1   999.00    698.0      0.0    -1430       0   999.0        0     0.0
 187    9:45   47.9    98    4.1   315     5.3   999.00    698.0      0.0    -1430       0   999.0        0     0.0
 187    9:50   48.2    96    4.6   322     6.3   999.00    698.1      0.0    -1430       0   999.0        0     0.0

Return to DRI Storm Peak Lab. graphs page.


Western Regional Climate Center,wrcc@dri.edu